Time;durP1;ratioP1;P1;durP2;ratioP2;P2;SDS_P1;SDS_P2;PMS_P1;PMS_P2;Temp;Humidity;BMP_temperature;BMP_pressure;BME280_temperature;BME280_humidity;BME280_pressure;Samples;Min_cycle;Max_cycle;Signal;HPM_P1;HPM_P2
2022/06/13 00:00:16;;;;;;;16.25;2.30;;;18.40;59.80;;;;;;5009483;28;20033;-70
2022/06/13 00:02:42;;;;;;;5.80;2.13;;;;;;;;;;5016955;28;20021;-69
2022/06/13 00:05:09;;;;;;;6.60;2.33;;;;;;;;;;5022608;28;20026;-69
2022/06/13 00:07:35;;;;;;;8.93;2.58;;;;;;;;;;5022391;28;20026;-70
2022/06/13 00:10:01;;;;;;;5.18;2.35;;;;;;;;;;5015131;28;20051;-70
2022/06/13 00:12:28;;;;;;;7.65;2.60;;;;;;;;;;5013022;28;20025;-70
2022/06/13 00:14:54;;;;;;;6.82;2.45;;;;;;;;;;5030979;28;20025;-71
2022/06/13 00:17:20;;;;;;;8.05;2.70;;;;;;;;;;5002157;28;20106;-69
2022/06/13 00:19:46;;;;;;;6.30;2.65;;;;;;;;;;5024902;28;20075;-70
2022/06/13 00:22:12;;;;;;;5.47;2.92;;;;;;;;;;4996819;28;20034;-69
2022/06/13 00:24:38;;;;;;;8.90;2.85;;;;;;;;;;5026269;28;20104;-69
2022/06/13 00:27:05;;;;;;;9.90;2.78;;;;;;;;;;5000877;28;20158;-69
2022/06/13 00:29:31;;;;;;;6.18;2.90;;;;;;;;;;5018384;28;20029;-69
2022/06/13 00:31:57;;;;;;;7.10;3.05;;;;;;;;;;5011527;28;20086;-69
2022/06/13 00:34:23;;;;;;;6.82;2.95;;;;;;;;;;5010165;28;20025;-68
2022/06/13 00:36:49;;;;;;;7.93;2.85;;;;;;;;;;5016707;28;20021;-69
2022/06/13 00:39:15;;;;;;;9.98;2.95;;;;;;;;;;5020623;28;20029;-69
2022/06/13 00:41:42;;;;;;;7.82;2.78;;;;;;;;;;5023736;28;20037;-70
2022/06/13 00:44:17;;;;;;;6.63;2.63;;;;;;;;;;5009808;28;20472;-70
2022/06/13 00:46:43;;;;;;;6.30;3.00;;;;;;;;;;5011895;28;20078;-70
2022/06/13 00:49:12;;;;;;;5.90;2.83;;;;;;;;;;5001956;28;20504;-70
2022/06/13 00:51:46;;;;;;;6.10;2.85;;;17.50;65.40;;;;;;5018578;28;20484;-70
2022/06/13 00:54:15;;;;;;;5.47;3.10;;;17.50;65.40;;;;;;5029155;28;20021;-70
2022/06/13 00:56:42;;;;;;;7.15;2.38;;;17.50;65.50;;;;;;5000041;28;20451;-70
2022/06/13 00:59:13;;;;;;;7.10;2.90;;;17.40;65.50;;;;;;5023946;28;20117;-70
2022/06/13 01:01:38;;;;;;;6.07;3.20;;;17.50;65.80;;;;;;5025260;28;20189;-69
2022/06/13 01:04:06;;;;;;;4.35;2.72;;;17.40;66.00;;;;;;5016119;28;20034;-70
2022/06/13 01:06:35;;;;;;;5.05;2.85;;;17.40;66.20;;;;;;5000205;28;20021;-69
2022/06/13 01:09:05;;;;;;;6.57;2.50;;;17.30;66.50;;;;;;5022693;28;20071;-71
2022/06/13 01:11:31;;;;;;;5.40;2.92;;;17.20;66.60;;;;;;5021537;28;20029;-68
2022/06/13 01:14:16;;;;;;;8.50;3.03;;;17.10;66.50;;;;;;5014763;28;20029;-68
2022/06/13 01:16:51;;;;;;;8.35;2.80;;;17.00;66.30;;;;;;4983182;28;20026;-70
2022/06/13 01:19:35;;;;;;;4.63;2.70;;;17.00;65.80;;;;;;5019488;28;20061;-69
2022/06/13 01:22:39;;;;;;;3.92;2.08;;;17.00;65.80;;;;;;5026330;28;20034;-69
2022/06/13 01:25:07;;;;;;;6.15;2.70;;;17.00;66.50;;;;;;5007131;28;20027;-70
2022/06/13 01:27:59;;;;;;;8.20;3.08;;;17.00;65.80;;;;;;5007315;28;20019;-69
2022/06/13 01:30:35;;;;;;;;;;;17.10;65.60;;;;;;4974714;28;20090;-69
2022/06/13 01:33:24;;;;;;;5.85;2.28;;;17.10;65.60;;;;;;5004406;28;20112;-70
2022/06/13 01:36:18;;;;;;;4.95;2.65;;;17.00;65.60;;;;;;5017860;28;20029;-71
2022/06/13 01:38:47;;;;;;;7.63;3.13;;;17.10;65.20;;;;;;5000327;28;20105;-69
2022/06/13 01:41:40;;;;;;;6.28;2.88;;;17.20;64.80;;;;;;5020119;28;20038;-69
2022/06/13 01:44:23;;;;;;;7.20;2.63;;;17.10;64.90;;;;;;5031312;28;20029;-69
2022/06/13 01:47:14;;;;;;;6.72;2.90;;;17.20;64.60;;;;;;5016037;28;20151;-69
2022/06/13 01:49:51;;;;;;;6.43;2.65;;;17.20;65.00;;;;;;4998831;28;20433;-69
2022/06/13 01:52:26;;;;;;;5.45;2.67;;;17.20;64.60;;;;;;5026230;28;20024;-69
2022/06/13 01:55:20;;;;;;;6.30;2.90;;;17.20;64.80;;;;;;4998218;28;20049;-69
2022/06/13 01:57:57;;;;;;;7.15;2.58;;;17.20;64.60;;;;;;5015143;28;20033;-69
2022/06/13 02:00:31;;;;;;;7.63;2.58;;;17.10;64.50;;;;;;5017281;28;20034;-69
2022/06/13 02:03:07;;;;;;;8.68;2.90;;;17.10;64.50;;;;;;5022095;28;20022;-69
2022/06/13 02:05:36;;;;;;;8.75;2.80;;;17.10;64.80;;;;;;5021709;28;20356;-69
2022/06/13 02:08:11;;;;;;;7.22;2.83;;;17.20;64.30;;;;;;5012710;28;20022;-69
2022/06/13 02:10:44;;;;;;;5.47;2.65;;;17.10;63.60;;;;;;4980533;28;20022;-69
2022/06/13 02:13:31;;;;;;;6.25;2.67;;;17.10;63.50;;;;;;5020467;28;20028;-71
2022/06/13 02:16:01;;;;;;;6.60;2.92;;;17.10;63.90;;;;;;5007079;28;20032;-70
2022/06/13 02:18:33;;;;;;;5.43;2.85;;;17.20;63.60;;;;;;5012087;28;20021;-69
2022/06/13 02:21:07;;;;;;;7.15;2.63;;;17.20;63.70;;;;;;5021227;28;20480;-69
2022/06/13 02:23:38;;;;;;;7.00;3.05;;;17.10;64.00;;;;;;5021415;28;20026;-70
2022/06/13 02:26:10;;;;;;;7.15;3.17;;;17.10;63.60;;;;;;4995332;28;20026;-69
2022/06/13 02:28:55;;;;;;;7.07;2.63;;;17.00;63.70;;;;;;4995201;28;20436;-68
2022/06/13 02:31:42;;;;;;;9.55;2.72;;;17.00;63.40;;;;;;5018396;28;20106;-70
2022/06/13 02:34:23;;;;;;;3.92;2.65;;;17.10;63.70;;;;;;5016044;28;20109;-70
2022/06/13 02:36:51;;;;;;;5.97;2.53;;;17.10;63.40;;;;;;5005156;28;20025;-69
2022/06/13 02:39:38;;;;;;;10.70;2.80;;;17.10;63.00;;;;;;5018082;28;20033;-71
2022/06/13 02:42:22;;;;;;;7.07;3.28;;;17.00;63.40;;;;;;5012603;28;20037;-69
2022/06/13 02:45:01;;;;;;;3.90;2.08;;;17.00;63.70;;;;;;5000915;28;20024;-69
2022/06/13 02:47:44;;;;;;;5.05;2.47;;;17.00;63.70;;;;;;5016074;28;20075;-69
2022/06/13 02:50:15;;;;;;;4.53;2.90;;;16.90;64.10;;;;;;5007292;28;20025;-69
2022/06/13 02:52:48;;;;;;;8.20;2.95;;;16.90;63.50;;;;;;5013062;28;20079;-69
2022/06/13 02:55:16;;;;;;;3.92;2.47;;;17.00;63.40;;;;;;5019740;28;20485;-69
2022/06/13 02:58:09;;;;;;;4.40;2.53;;;17.00;63.20;;;;;;5020992;28;20021;-70
2022/06/13 03:00:52;;;;;;;9.27;3.13;;;17.00;63.00;;;;;;4997123;28;20044;-69
2022/06/13 03:03:37;;;;;;;7.60;2.85;;;17.00;62.90;;;;;;5018460;28;20137;-70
2022/06/13 03:06:27;;;;;;;19.42;7.70;;;17.10;62.90;;;;;;5024623;28;20078;-69
2022/06/13 03:08:58;;;;;;;417.73;246.52;;;17.10;62.60;;;;;;5001107;28;20066;-69
2022/06/13 03:11:43;;;;;;;20.38;8.48;;;17.10;62.40;;;;;;5017618;28;20030;-69
2022/06/13 03:14:18;;;;;;;15.30;7.90;;;17.10;62.50;;;;;;5025232;28;20112;-69
2022/06/13 03:16:55;;;;;;;14.05;5.55;;;17.00;62.10;;;;;;5014060;28;20017;-70
2022/06/13 03:19:36;;;;;;;192.60;97.97;;;17.10;62.00;;;;;;4999713;28;20026;-69
2022/06/13 03:22:08;;;;;;;40.13;18.70;;;17.10;62.20;;;;;;5024734;28;20076;-69
2022/06/13 03:25:07;;;;;;;60.95;23.27;;;17.20;60.10;;;;;;4971707;28;20054;-69
2022/06/13 03:27:39;;;;;;;22.05;8.55;;;17.20;59.00;;;;;;4988240;28;20438;-70
2022/06/13 03:30:07;;;;;;;23.27;9.68;;;17.20;58.40;;;;;;5021410;28;20022;-71
2022/06/13 03:32:43;;;;;;;46.97;18.45;;;17.30;57.50;;;;;;5028521;28;20104;-72
2022/06/13 03:35:14;;;;;;;27.02;8.43;;;17.30;57.70;;;;;;5018192;28;20021;-70
2022/06/13 03:37:45;;;;;;;17.85;6.78;;;17.30;57.40;;;;;;5014543;28;20041;-70
2022/06/13 03:40:24;;;;;;;6.03;2.28;;;17.40;57.10;;;;;;5024220;28;20038;-68
2022/06/13 03:43:09;;;;;;;9.10;2.80;;;17.40;56.60;;;;;;5014207;28;20030;-69
2022/06/13 03:45:43;;;;;;;13.63;5.53;;;17.40;56.80;;;;;;5015798;28;20022;-68
2022/06/13 03:48:21;;;;;;;16.23;5.47;;;17.40;56.90;;;;;;5023591;28;20104;-69
2022/06/13 03:51:06;;;;;;;8.73;2.55;;;17.50;56.90;;;;;;4996281;28;20026;-71
2022/06/13 03:53:55;;;;;;;7.22;2.88;;;17.50;56.70;;;;;;5015977;28;20473;-70
2022/06/13 03:56:40;;;;;;;5.70;2.67;;;17.50;56.50;;;;;;5023376;28;20037;-70
2022/06/13 03:59:12;;;;;;;10.57;2.80;;;17.50;56.70;;;;;;5015539;28;20029;-71
2022/06/13 04:01:42;;;;;;;8.52;2.22;;;17.60;57.10;;;;;;5015165;28;20026;-70
2022/06/13 04:04:32;;;;;;;7.63;2.25;;;17.70;56.60;;;;;;5024106;28;20497;-67
2022/06/13 04:07:00;;;;;;;7.45;2.00;;;17.80;56.60;;;;;;5017990;28;20036;-71
2022/06/13 04:09:33;;;;;;;6.80;2.40;;;17.90;56.70;;;;;;5019575;28;20030;-69
2022/06/13 04:12:17;;;;;;;5.30;2.25;;;18.00;56.60;;;;;;5027138;28;20025;-68
2022/06/13 04:15:00;;;;;;;9.07;2.55;;;18.30;55.10;;;;;;4974210;28;20030;-69
2022/06/13 04:18:01;;;;;;;7.32;2.42;;;18.60;54.80;;;;;;4995362;28;20478;-69
2022/06/13 04:20:38;;;;;;;10.93;2.53;;;19.00;53.80;;;;;;5038319;28;20083;-71
2022/06/13 04:23:20;;;;;;;9.63;2.25;;;19.00;53.60;;;;;;5018895;28;20475;-70
2022/06/13 04:26:04;;;;;;;4.10;1.88;;;18.80;54.10;;;;;;5016990;28;20029;-67
2022/06/13 04:28:34;;;;;;;7.35;2.30;;;18.50;55.30;;;;;;5026521;28;20097;-70
2022/06/13 04:31:02;;;;;;;8.32;2.00;;;18.20;56.40;;;;;;5018090;28;20078;-70
2022/06/13 04:33:57;;;;;;;10.38;3.20;;;18.00;57.20;;;;;;5014760;28;20014;-70
2022/06/13 04:36:24;;;;;;;8.98;2.88;;;17.80;57.70;;;;;;5026082;28;20021;-70
2022/06/13 04:38:54;;;;;;;7.50;2.67;;;17.90;58.10;;;;;;5016110;28;20101;-69
2022/06/13 04:41:23;;;;;;;6.22;2.45;;;18.10;57.70;;;;;;5051475;22;20052;-70
2022/06/13 04:43:53;;;;;;;8.73;2.28;;;18.50;57.10;;;;;;5044633;28;20029;-70
2022/06/13 04:46:21;;;;;;;18.83;2.97;;;19.00;55.00;;;;;;5033808;28;20053;-70
2022/06/13 04:48:50;;;;;;;6.25;2.67;;;19.30;54.00;;;;;;5025448;28;20020;-69
2022/06/13 04:51:22;;;;;;;10.30;3.28;;;19.50;53.60;;;;;;5040135;28;20077;-70
2022/06/13 04:53:56;;;;;;;8.73;2.75;;;19.40;53.50;;;;;;5036020;28;20022;-69
2022/06/13 04:56:23;;;;;;;10.70;2.75;;;19.50;54.00;;;;;;5046572;28;20082;-70
2022/06/13 04:58:50;;;;;;;11.02;2.70;;;;;;;;;;5017349;28;20029;-71
2022/06/13 05:01:27;;;;;;;9.73;2.75;;;21.70;48.70;;;;;;5040017;28;20029;-70
2022/06/13 05:03:55;;;;;;;9.05;2.45;;;;;;;;;;5045047;28;20550;-69
2022/06/13 05:06:26;;;;;;;9.55;2.50;;;23.50;44.80;;;;;;5033145;28;20029;-70
2022/06/13 05:08:57;;;;;;;9.15;2.13;;;;;;;;;;5042743;28;20014;-70
2022/06/13 05:11:27;;;;;;;9.48;2.22;;;28.00;35.40;;;;;;5023102;28;20048;-71
2022/06/13 05:14:02;;;;;;;10.88;2.78;;;28.20;35.30;;;;;;5034768;28;20033;-71
2022/06/13 05:16:49;;;;;;;9.15;2.40;;;29.20;33.10;;;;;;5027654;28;20560;-70
2022/06/13 05:19:32;;;;;;;9.38;2.40;;;30.10;32.10;;;;;;5020584;28;20069;-71
2022/06/13 05:21:58;;;;;;;6.75;2.00;;;31.50;29.70;;;;;;5033926;28;20050;-70
2022/06/13 05:24:38;;;;;;;7.28;2.03;;;31.70;29.00;;;;;;5045672;28;20056;-69
2022/06/13 05:27:06;;;;;;;7.72;2.38;;;31.80;28.60;;;;;;5036962;28;20029;-70
2022/06/13 05:29:32;;;;;;;3.35;1.77;;;31.90;28.70;;;;;;5019728;28;20380;-71
2022/06/13 05:31:58;;;;;;;8.77;2.10;;;31.90;28.10;;;;;;5027068;28;20025;-71
2022/06/13 05:34:35;;;;;;;5.95;2.40;;;32.10;28.10;;;;;;5020184;28;20037;-71
2022/06/13 05:37:02;;;;;;;5.78;2.22;;;32.90;27.60;;;;;;5036670;28;20061;-71
2022/06/13 05:39:29;;;;;;;7.03;2.03;;;33.30;26.50;;;;;;5037711;28;20057;-71
2022/06/13 05:41:54;;;;;;;11.07;2.40;;;32.90;26.70;;;;;;5044383;28;20029;-70
2022/06/13 05:44:20;;;;;;;6.32;2.28;;;33.10;26.60;;;;;;5032795;28;20022;-71
2022/06/13 05:46:46;;;;;;;5.07;1.95;;;32.90;26.90;;;;;;5043886;28;20052;-71
2022/06/13 05:49:13;;;;;;;4.75;2.03;;;32.20;27.90;;;;;;5037610;28;20021;-70
2022/06/13 05:51:38;;;;;;;6.55;2.65;;;31.20;28.40;;;;;;5037251;28;20082;-72
2022/06/13 05:54:04;;;;;;;6.00;2.35;;;30.50;29.30;;;;;;5046387;28;20503;-71
2022/06/13 05:56:31;;;;;;;6.80;1.95;;;30.50;30.20;;;;;;5033311;28;20032;-72
2022/06/13 05:58:56;;;;;;;9.95;2.70;;;31.30;29.20;;;;;;5041331;28;20368;-72
2022/06/13 06:01:23;;;;;;;4.57;2.42;;;32.00;28.40;;;;;;5039787;28;20036;-72
2022/06/13 06:03:49;;;;;;;5.97;2.70;;;32.60;27.30;;;;;;5031262;28;20032;-72
2022/06/13 06:06:20;;;;;;;7.97;2.53;;;32.30;27.70;;;;;;5045643;28;20470;-71
2022/06/13 06:08:47;;;;;;;6.65;2.30;;;32.80;27.50;;;;;;5033657;28;20024;-71
2022/06/13 06:11:12;;;;;;;6.70;2.47;;;32.50;26.70;;;;;;5039324;28;20025;-71
2022/06/13 06:13:38;;;;;;;5.97;1.90;;;;;;;;;;5041191;28;20060;-68
2022/06/13 06:16:04;;;;;;;8.30;2.17;;;33.70;27.00;;;;;;5032409;28;20028;-69
2022/06/13 06:18:31;;;;;;;5.50;1.80;;;34.30;25.80;;;;;;5044332;28;20090;-69
2022/06/13 06:20:57;;;;;;;11.25;2.10;;;35.00;25.30;;;;;;5035331;28;20021;-68
2022/06/13 06:23:23;;;;;;;11.85;2.90;;;35.40;24.40;;;;;;5020202;28;20099;-68
2022/06/13 06:25:49;;;;;;;8.82;2.10;;;36.20;24.40;;;;;;5025307;28;20017;-69
2022/06/13 06:28:18;;;;;;;8.95;2.70;;;35.40;24.20;;;;;;5029917;28;20082;-67
2022/06/13 06:30:44;;;;;;;5.70;2.37;;;35.40;25.50;;;;;;5043002;28;20018;-69
2022/06/13 06:33:10;;;;;;;7.20;2.30;;;35.70;24.00;;;;;;5037193;27;20518;-71
2022/06/13 06:35:36;;;;;;;7.57;2.20;;;36.30;23.10;;;;;;5002068;28;20022;-70
2022/06/13 06:38:02;;;;;;;6.43;2.00;;;35.30;25.30;;;;;;5032842;28;20458;-70
2022/06/13 06:40:28;;;;;;;6.78;2.38;;;;;;;;;;5043897;28;20052;-69
2022/06/13 06:42:55;;;;;;;22.00;14.40;;;;;;;;;;5019669;28;20025;-72
2022/06/13 06:45:22;;;;;;;21.40;10.82;;;;;;;;;;5037531;28;20025;-70
2022/06/13 06:47:47;;;;;;;22.58;12.73;;;31.60;29.00;;;;;;5035100;28;20364;-71
2022/06/13 06:50:16;;;;;;;75.57;43.28;;;32.00;28.40;;;;;;5038976;28;20029;-70
2022/06/13 06:52:42;;;;;;;32.88;21.00;;;33.10;27.50;;;;;;5015468;28;20390;-70
2022/06/13 07:01:01;;;;;;;14.77;6.80;;;33.50;25.80;;;;;;5009428;28;20409;-71
2022/06/13 07:03:27;;;;;;;9.07;2.92;;;;;;;;;;5038576;28;20448;-71
2022/06/13 07:05:53;;;;;;;66.22;44.22;;;30.10;30.50;;;;;;5041595;28;20029;-69
2022/06/13 07:08:19;;;;;;;12.23;5.60;;;29.50;32.00;;;;;;5000801;28;20113;-69
2022/06/13 07:10:47;;;;;;;39.47;23.48;;;29.10;32.30;;;;;;5043891;28;20022;-69
2022/06/13 07:13:14;;;;;;;9.38;2.83;;;28.50;33.30;;;;;;5036686;28;20027;-68
2022/06/13 07:15:40;;;;;;;14.38;7.65;;;27.70;33.60;;;;;;5036706;28;20097;-68
2022/06/13 07:18:07;;;;;;;22.92;11.07;;;27.20;35.10;;;;;;5042452;28;20502;-70
2022/06/13 07:20:33;;;;;;;13.05;6.82;;;27.20;35.80;;;;;;5031119;28;20021;-69
2022/06/13 07:22:59;;;;;;;23.88;11.52;;;27.30;35.70;;;;;;5024022;28;20036;-69
2022/06/13 07:25:28;;;;;;;23.02;11.70;;;27.40;35.30;;;;;;5037349;28;20025;-70
2022/06/13 07:27:54;;;;;;;9.00;2.53;;;27.40;35.30;;;;;;5015815;28;20033;-70
2022/06/13 07:30:22;;;;;;;8.48;1.98;;;27.50;34.50;;;;;;5044608;28;20029;-70
2022/06/13 07:32:50;;;;;;;51.97;39.08;;;27.60;34.60;;;;;;5032064;28;20471;-70
2022/06/13 07:35:18;;;;;;;164.60;121.32;;;26.60;37.20;;;;;;5021452;28;20041;-70
2022/06/13 07:40:30;;;;;;;9.43;3.33;;;28.40;33.70;;;;;;5033805;28;20553;-70
2022/06/13 07:43:00;;;;;;;38.53;26.25;;;27.40;34.60;;;;;;5039981;28;20017;-70
2022/06/13 07:45:29;;;;;;;44.85;32.78;;;27.50;35.70;;;;;;5041835;28;20120;-71
2022/06/13 07:47:55;;;;;;;12.07;5.82;;;27.70;35.50;;;;;;5044073;28;20020;-67
2022/06/13 07:50:24;;;;;;;28.52;18.33;;;27.50;34.80;;;;;;5033489;28;20086;-68
2022/06/13 07:52:51;;;;;;;12.07;6.93;;;27.80;35.60;;;;;;5046223;28;20025;-71
2022/06/13 07:55:18;;;;;;;15.32;3.25;;;;;;;;;;5039573;28;20481;-70
2022/06/13 07:57:45;;;;;;;55.25;30.42;;;;;;;;;;5038223;28;20459;-67
2022/06/13 08:00:13;;;;;;;96.78;65.13;;;;;;;;;;5046828;28;20025;-67
2022/06/13 08:02:39;;;;;;;97.30;66.95;;;;;;;;;;5034726;28;20025;-67
2022/06/13 08:05:06;;;;;;;22.35;11.75;;;;;;;;;;5044134;28;20070;-68
2022/06/13 08:07:32;;;;;;;12.07;6.25;;;;;;;;;;5040577;28;20021;-68
2022/06/13 08:09:57;;;;;;;15.55;6.32;;;25.60;40.20;;;;;;5036963;28;20074;-68
2022/06/13 08:12:24;;;;;;;13.13;4.60;;;25.00;41.20;;;;;;5047093;28;20013;-69
2022/06/13 08:14:50;;;;;;;9.43;4.18;;;24.40;43.40;;;;;;5035223;28;20021;-68
2022/06/13 08:17:19;;;;;;;9.95;3.10;;;23.50;45.10;;;;;;5041985;28;20034;-69
2022/06/13 08:19:46;;;;;;;8.90;2.95;;;23.40;46.00;;;;;;5043129;28;20025;-70
2022/06/13 08:22:14;;;;;;;15.02;5.32;;;23.40;46.60;;;;;;5034653;28;20037;-69
2022/06/13 08:24:40;;;;;;;11.30;3.22;;;23.40;46.40;;;;;;5029260;28;20026;-69
2022/06/13 08:27:06;;;;;;;12.20;5.00;;;22.60;45.90;;;;;;5036734;28;20438;-69
2022/06/13 08:29:32;;;;;;;10.15;3.20;;;22.80;46.40;;;;;;5022341;28;20117;-70
2022/06/13 08:31:59;;;;;;;9.50;2.88;;;23.00;44.90;;;;;;5044902;28;20025;-69
2022/06/13 08:34:24;;;;;;;6.95;2.80;;;23.60;41.80;;;;;;5016558;28;20036;-69
2022/06/13 08:36:50;;;;;;;11.32;4.45;;;23.10;43.20;;;;;;5046078;28;20013;-68
2022/06/13 08:39:16;;;;;;;6.93;2.80;;;23.60;43.90;;;;;;5038523;28;20025;-69
2022/06/13 08:41:41;;;;;;;6.18;2.67;;;23.80;41.70;;;;;;5031826;28;20528;-69
2022/06/13 08:44:29;;;;;;;11.05;2.88;;;23.50;41.60;;;;;;5026048;28;20092;-68
2022/06/13 08:47:02;;;;;;;7.05;3.13;;;23.20;43.30;;;;;;5021429;28;20464;-66
2022/06/13 08:49:44;;;;;;;9.40;3.00;;;22.90;43.30;;;;;;5039724;28;20026;-69
2022/06/13 08:52:12;;;;;;;6.07;2.25;;;22.90;43.50;;;;;;5045352;28;20060;-68
2022/06/13 08:54:41;;;;;;;8.82;2.97;;;23.00;44.30;;;;;;5033615;28;20037;-67
2022/06/13 08:57:10;;;;;;;24.27;14.32;;;23.00;44.50;;;;;;5042258;28;20022;-68
2022/06/13 09:00:03;;;;;;;27.10;15.93;;;23.30;44.70;;;;;;5040885;28;20074;-69
2022/06/13 09:02:36;;;;;;;24.02;15.90;;;23.70;43.30;;;;;;5033551;28;20057;-68
2022/06/13 09:05:16;;;;;;;12.10;5.55;;;23.80;42.50;;;;;;5043341;28;20548;-69
2022/06/13 09:08:01;;;;;;;29.70;20.42;;;24.20;42.30;;;;;;5041053;28;20025;-68
2022/06/13 09:10:37;;;;;;;35.22;21.90;;;24.50;42.00;;;;;;5015406;28;20037;-69
2022/06/13 09:13:27;;;;;;;19.92;12.05;;;24.70;41.70;;;;;;5043506;28;20105;-68
2022/06/13 09:16:06;;;;;;;12.02;5.15;;;25.20;41.10;;;;;;5042860;28;20036;-70
2022/06/13 09:18:54;;;;;;;33.55;19.25;;;25.20;40.40;;;;;;5032402;28;20021;-67
2022/06/13 09:21:46;;;;;;;42.58;28.95;;;25.40;40.70;;;;;;5041000;28;20026;-70
2022/06/13 09:24:35;;;;;;;21.77;12.23;;;25.40;41.00;;;;;;5046005;28;20022;-69
2022/06/13 09:27:34;;;;;;;137.98;119.65;;;25.80;40.30;;;;;;5005404;28;20065;-70
2022/06/13 09:30:14;;;;;;;12.95;6.47;;;;;;;;;;5021491;28;20382;-68
2022/06/13 09:32:53;;;;;;;10.68;3.78;;;26.60;37.90;;;;;;5030382;28;20030;-69
2022/06/13 09:35:34;;;;;;;8.57;3.80;;;26.50;37.60;;;;;;5029957;28;20025;-68
2022/06/13 09:38:13;;;;;;;7.43;2.70;;;26.10;37.40;;;;;;5029114;28;20022;-68
2022/06/13 09:41:00;;;;;;;7.72;3.45;;;25.90;38.40;;;;;;5029971;28;20631;-69
2022/06/13 09:43:35;;;;;;;12.32;3.90;;;25.80;38.10;;;;;;5029717;28;20022;-68
2022/06/13 09:46:03;;;;;;;6.97;3.17;;;25.70;38.20;;;;;;5029845;28;20382;-68
2022/06/13 09:48:54;;;;;;;6.93;4.43;;;25.30;38.70;;;;;;5029192;28;20459;-68
2022/06/13 09:51:37;;;;;;;8.73;2.70;;;25.70;38.00;;;;;;5028853;28;20033;-69
2022/06/13 09:54:24;;;;;;;9.45;3.80;;;26.40;36.20;;;;;;5029964;28;20029;-68
2022/06/13 09:57:02;;;;;;;11.05;3.60;;;26.90;35.20;;;;;;5029682;28;20098;-70
2022/06/13 09:59:48;;;;;;;11.05;3.25;;;26.50;35.00;;;;;;5027388;28;20491;-69
2022/06/13 10:02:22;;;;;;;13.23;2.88;;;26.20;35.40;;;;;;5029117;28;20029;-69
2022/06/13 10:05:23;;;;;;;5.50;2.42;;;26.00;36.10;;;;;;5029898;28;20387;-69
2022/06/13 10:08:00;;;;;;;6.97;2.35;;;25.80;35.50;;;;;;5028567;28;20025;-69
2022/06/13 10:10:49;;;;;;;14.68;2.80;;;24.60;37.40;;;;;;5011419;28;20038;-70
2022/06/13 10:13:28;;;;;;;10.88;3.67;;;24.50;38.90;;;;;;5026594;28;20037;-69
2022/06/13 10:16:35;;;;;;;8.02;3.70;;;24.70;38.80;;;;;;5029120;28;20551;-69
2022/06/13 10:19:18;;;;;;;8.18;2.85;;;25.00;38.80;;;;;;5021658;28;20071;-69
2022/06/13 10:21:48;;;;;;;8.55;2.58;;;25.30;38.10;;;;;;5029625;28;20427;-69
2022/06/13 10:24:44;;;;;;;7.57;2.65;;;25.00;37.60;;;;;;5028997;28;20077;-69
2022/06/13 10:27:33;;;;;;;10.93;3.83;;;24.60;38.20;;;;;;5028542;28;20030;-68
2022/06/13 10:30:11;;;;;;;7.88;3.40;;;24.20;40.00;;;;;;5028863;28;20456;-73
2022/06/13 10:33:01;;;;;;;7.72;2.65;;;24.20;39.70;;;;;;5028870;28;20040;-68
2022/06/13 10:35:52;;;;;;;10.27;3.25;;;24.40;39.80;;;;;;5029006;28;20024;-68
2022/06/13 10:38:24;;;;;;;7.78;2.97;;;24.70;39.00;;;;;;5028471;28;20104;-70
2022/06/13 10:40:50;;;;;;;9.50;2.80;;;25.00;38.70;;;;;;5046273;22;20038;-69
2022/06/13 10:43:16;;;;;;;12.70;3.00;;;25.50;38.20;;;;;;5009320;28;20048;-70
2022/06/13 10:45:42;;;;;;;10.82;2.83;;;24.80;37.60;;;;;;5009205;28;20022;-69
2022/06/13 10:48:23;;;;;;;7.55;3.08;;;23.80;39.30;;;;;;5008554;28;20030;-70
2022/06/13 10:50:55;;;;;;;15.35;3.53;;;23.30;41.20;;;;;;5010956;28;20433;-70
2022/06/13 10:53:28;;;;;;;8.88;3.28;;;23.20;40.70;;;;;;5011101;28;20034;-69
2022/06/13 10:55:58;;;;;;;7.15;2.80;;;23.10;41.10;;;;;;5028851;28;20033;-69
2022/06/13 10:58:39;;;;;;;12.00;2.30;;;23.30;40.70;;;;;;5027971;28;20033;-69
2022/06/13 11:01:11;;;;;;;;;;;23.00;40.60;;;;;;5028979;28;20029;-70
2022/06/13 11:03:41;;;;;;;11.77;3.85;;;23.20;40.80;;;;;;5028511;28;20324;-69
2022/06/13 11:06:15;;;;;;;8.25;2.53;;;23.20;40.20;;;;;;5028675;28;20104;-70
2022/06/13 11:08:41;;;;;;;9.98;2.65;;;23.40;39.40;;;;;;5027819;28;20017;-68
2022/06/13 11:11:14;;;;;;;6.15;2.55;;;23.30;39.20;;;;;;5011003;28;20025;-70
2022/06/13 11:13:42;;;;;;;9.32;2.38;;;23.10;39.30;;;;;;5028217;28;20053;-69
2022/06/13 11:25:02;;;;;;;9.27;2.85;;;23.90;38.90;;;;;;5028571;28;20032;-70
2022/06/13 11:27:39;;;;;;;10.60;3.22;;;24.20;38.30;;;;;;5028844;28;20113;-70
2022/06/13 11:30:29;;;;;;;5.65;3.00;;;24.20;38.20;;;;;;5028493;28;20066;-68
2022/06/13 11:33:00;;;;;;;4.85;2.22;;;24.30;38.60;;;;;;5027738;28;20021;-68
2022/06/13 11:35:49;;;;;;;5.45;2.17;;;24.40;37.90;;;;;;5028276;28;20025;-69
2022/06/13 11:38:34;;;;;;;10.23;2.72;;;24.20;37.80;;;;;;5009762;28;20087;-69
2022/06/13 11:41:10;;;;;;;10.80;2.45;;;23.90;38.40;;;;;;5027780;28;20029;-69
2022/06/13 11:43:50;;;;;;;8.50;2.38;;;23.50;37.30;;;;;;5028072;28;20468;-69
2022/06/13 11:46:31;;;;;;;6.03;2.03;;;23.40;36.00;;;;;;5010310;28;20108;-68
2022/06/13 11:49:05;;;;;;;5.37;2.27;;;23.60;37.90;;;;;;5027377;28;20074;-70
2022/06/13 11:51:43;;;;;;;5.43;2.08;;;23.80;36.90;;;;;;5028074;28;20057;-70
2022/06/13 11:54:18;;;;;;;8.23;2.30;;;23.80;36.30;;;;;;5010419;28;20082;-70
2022/06/13 11:56:44;;;;;;;9.93;2.28;;;23.20;37.00;;;;;;5028199;28;20025;-69
2022/06/13 11:59:15;;;;;;;5.85;2.17;;;23.00;38.50;;;;;;5027301;28;20075;-70
2022/06/13 12:01:41;;;;;;;6.15;1.98;;;23.20;37.90;;;;;;5027870;28;20432;-69
2022/06/13 12:04:13;;;;;;;7.65;2.40;;;23.50;37.30;;;;;;5027822;28;20533;-70
2022/06/13 12:06:43;;;;;;;;;;;23.60;37.00;;;;;;5028423;28;20071;-69
2022/06/13 12:09:31;;;;;;;7.05;2.45;;;23.90;36.80;;;;;;5027299;28;19905;-69
2022/06/13 12:12:04;;;;;;;7.35;2.67;;;24.50;36.40;;;;;;5027828;28;20034;-69
2022/06/13 12:14:38;;;;;;;8.43;2.78;;;24.90;36.00;;;;;;5027680;28;20052;-70
2022/06/13 12:17:17;;;;;;;8.57;2.45;;;24.50;36.40;;;;;;5027301;28;20427;-69
2022/06/13 12:20:01;;;;;;;9.30;2.20;;;24.30;36.20;;;;;;5028005;28;20414;-70
2022/06/13 12:22:39;;;;;;;8.13;2.80;;;24.10;35.90;;;;;;5027797;28;20395;-69
2022/06/13 12:25:23;;;;;;;11.35;2.20;;;23.90;37.60;;;;;;5027773;28;20029;-69
2022/06/13 12:28:09;;;;;;;8.55;1.90;;;23.60;37.80;;;;;;5030140;28;20102;-70
2022/06/13 12:30:45;;;;;;;8.20;2.17;;;23.70;36.70;;;;;;5030964;28;20064;-69
2022/06/13 12:33:22;;;;;;;7.97;2.63;;;23.60;36.20;;;;;;5013265;28;20026;-69
2022/06/13 12:36:17;;;;;;;6.78;2.03;;;23.60;36.20;;;;;;5030905;28;20041;-68
2022/06/13 12:39:22;;;;;;;7.38;2.15;;;23.80;35.90;;;;;;5048927;28;20040;-69
2022/06/13 12:41:56;;;;;;;8.48;2.40;;;23.90;36.50;;;;;;5030375;28;20037;-70
2022/06/13 12:44:28;;;;;;;5.15;1.70;;;23.90;37.20;;;;;;5031135;28;20108;-70
2022/06/13 12:46:59;;;;;;;6.70;1.63;;;24.00;37.00;;;;;;5030709;28;20017;-70
2022/06/13 12:49:45;;;;;;;5.40;2.45;;;24.30;36.10;;;;;;5012513;28;20014;-70
2022/06/13 12:52:17;;;;;;;6.78;2.22;;;24.10;36.70;;;;;;5030634;28;20027;-70
2022/06/13 12:55:20;;;;;;;3.22;1.50;;;23.90;37.60;;;;;;5030857;28;20104;-70
2022/06/13 12:58:04;;;;;;;4.85;2.10;;;23.50;38.40;;;;;;5029749;28;20057;-69
2022/06/13 13:00:45;;;;;;;4.45;2.00;;;23.30;40.00;;;;;;5030165;28;20520;-68
2022/06/13 13:03:20;;;;;;;9.75;1.90;;;22.70;40.30;;;;;;5012165;28;20029;-70
2022/06/13 13:06:09;;;;;;;5.85;1.90;;;22.50;40.30;;;;;;5012471;28;20022;-70
2022/06/13 13:08:48;;;;;;;3.60;1.17;;;22.20;40.30;;;;;;5011791;28;20026;-69
2022/06/13 13:11:33;;;;;;;10.18;2.10;;;22.00;41.30;;;;;;5030029;28;20075;-69
2022/06/13 13:14:43;;;;;;;4.18;2.00;;;21.80;40.70;;;;;;5030391;28;20030;-69
2022/06/13 13:17:46;;;;;;;4.82;1.60;;;21.50;41.80;;;;;;5051330;28;20033;-69
2022/06/13 13:20:32;;;;;;;7.78;1.52;;;21.50;42.30;;;;;;5030370;28;20037;-70
2022/06/13 13:23:03;;;;;;;4.72;1.60;;;21.70;42.10;;;;;;5030141;28;20026;-69
2022/06/13 13:25:52;;;;;;;6.82;1.48;;;21.80;41.90;;;;;;5029797;28;20497;-69
2022/06/13 13:28:55;;;;;;;4.78;1.50;;;21.90;40.30;;;;;;5029417;28;20038;-69
2022/06/13 13:31:36;;;;;;;4.65;1.60;;;21.80;41.60;;;;;;5029929;28;20029;-69
2022/06/13 13:34:14;;;;;;;7.22;1.33;;;21.70;41.50;;;;;;5030036;28;20040;-70
2022/06/13 13:36:49;;;;;;;5.68;1.75;;;21.80;41.10;;;;;;5029656;28;20128;-69
2022/06/13 13:39:20;;;;;;;5.20;1.40;;;21.70;41.60;;;;;;5029157;28;20025;-68
2022/06/13 13:41:57;;;;;;;4.90;1.52;;;21.60;40.10;;;;;;5029902;28;20116;-69
2022/06/13 13:44:31;;;;;;;5.65;1.58;;;21.60;40.70;;;;;;5030012;28;20626;-69
2022/06/13 13:47:14;;;;;;;2.80;1.58;;;21.40;40.50;;;;;;5029405;28;20026;-69
2022/06/13 13:49:53;;;;;;;4.60;1.75;;;21.40;40.90;;;;;;5029483;28;20215;-70
2022/06/13 13:52:36;;;;;;;4.18;1.70;;;21.30;40.80;;;;;;5029586;28;20381;-69